Terminal Aerodrome Forecast
Issued by NWS Upton, NY

Home | Current Version | Previous Version | Text Only | Print | Product List | Glossary On
Versions: 1 2 3 4 5 6 7 8 9 10 11 12 13 14 15 16 17 18 19 20 21 22 23 24 25 26 27
000
FTUS41 KOKX 230800 AAA
TAFLGA
TAF AMD
KLGA 230833Z 2309/2406 22008KT P6SM FEW250
     FM231800 19012KT P6SM SCT050 BKN250 PROB30 2323/2403 5SM TSRA
      BKN050CB
     FM240300 22006KT P6SM SCT050 BKN250 PROB30 2403/2406 5SM TSRA
      BKN050CB=

USA.gov is the U.S. government's official web portal to all federal, state and local government web resources and services.